Tiempo atmosférico en la estación meteorológica de La Oliva, Puerto de Corralejo, Las Palmas (6 m.)



Fecha
DESCASC
Temp. máxima en grados centígrados (hora)
DESCASC
Temp. mínima en grados centígrados (hora)
DESCASC
Temp. media en grados centígrados
DESCASC
Racha de viento máxima en m/sg (hora)
DESCASC
Velocidad máxima media en intervalos de 10 minutos(hora)
DESCASC
Precipitaciones diarias en mm
DESCASC
Precipitaciones de 00:00 a 06:00 en mm
DESCASC
Precipitaciones de 06:00 a 12:00 en mm
DESCASC
Precipitaciones de 12:00 a 18:00 en mm
DESCASC
Precipitaciones de 18:00 a 24:00 en mm
DESCASC
19-09-2019 26.4 (15:40) 21.5 (04:10) 23.9 10.28 (22:00) 8.06 (20:20) 0 0 0 0 0
18-09-2019 25.1 (16:00) 21.3 (03:50) 23.2 9.17 (15:00) 6.67 (13:50) 0 0 0 0 0
17-09-2019 26.2 (11:40) 21.1 (00:00) 23.7 8.61 (01:00) 5.83 (00:50) 0 0 0 0 0
16-09-2019 23 (00:00) 21.8 (00:00) 22.4 13.61 (16:00) 10.83 (16:00) 0.8 0 0.2 0.6 0
15-09-2019 25.3 (11:50) 20.2 (00:00) 22.8 9.17 (13:20) 7.5 (16:20) 0 0 0 0 0
14-09-2019 26.2 (11:10) 21.5 (00:00) 23.9 8.33 (01:00) 5.56 (00:10) 0 0 0 0 0
13-09-2019 24.1 (11:30) 21.7 (00:00) 22.9 13.61 (16:00) 10 (15:30) 0 0 0 0 0
12-09-2019 24 (15:50) 21.5 (00:00) 22.8 15.83 (09:00) 10.56 (15:20) 0 0 0 0 0
11-09-2019 24.4 (13:40) 21.7 (00:00) 23.1 14.17 (20:20) 10.83 (20:40) 0 0 0 0 0
10-09-2019 25.7 (12:00) 20.9 (06:00) 23.3 13.61 (17:00) 9.44 (17:30) 0 0 0 0 0
09-09-2019 25.4 (11:10) 21.2 (06:50) 23.3 10.56 (20:10) 8.33 (20:20) 0 0 0 0 0
08-09-2019 24.7 (16:00) 22.3 (00:00) 23.5 11.94 (18:00) 8.33 (18:10) 0 0 0 0 0
07-09-2019 24.5 (14:40) 22.1 (00:00) 23.3 10 (08:00) 7.5 (06:50) 0 0 0 0 0
06-09-2019 24.7 (15:00) 21.7 (00:00) 23.2 13.89 (14:00) 8.61 (14:00) 0 0 0 0 0
05-09-2019 24.7 (13:30) 21.7 (00:00) 23.2 9.72 (17:50) 6.39 (17:30) 0 0 0 0 0
04-09-2019 24.9 (15:00) 21.5 (00:00) 23.2 11.11 (20:00) 6.94 (18:20) 0 0 0 0 0
03-09-2019 24.9 (15:40) 21.2 (00:00) 23.1 11.11 (20:00) 7.22 (19:10) 0 0 0 0 0
02-09-2019 24.7 (11:20) 21.4 (00:00) 23.1 10 (13:00) 6.94 (13:00) 0 0 0 0 0
01-09-2019 25 (15:30) 22 (00:00) 23.5 9.17 (20:30) 7.22 (20:10) 0 0 0 0 0
31-08-2019 25.9 (11:50) 21.7 (00:00) 23.8 15 (14:00) 10.28 (18:30) 0 0 0 0 0
30-08-2019 25.6 (15:00) 21.7 (00:00) 23.7 11.94 (13:40) 9.17 (13:40) 0 0 0 0 0
29-08-2019 25.7 (17:40) 21.5 (00:00) 23.6 9.72 (18:20) 7.78 (18:30) 0 0 0 0 0
28-08-2019 25.1 (11:00) 21.9 (00:00) 23.5 14.17 (17:00) 9.72 (17:30) 0 0 0 0 0
27-08-2019 25.4 (11:20) 21.2 (00:00) 23.3 12.22 (16:00) 8.33 (16:00) 0 0 0 0 0
26-08-2019 25.9 (18:10) 21.9 (00:00) 23.9 11.67 (16:00) 9.44 (19:30) 0 0 0 0 0
25-08-2019 26.1 (17:40) 22.6 (00:00) 24.4 14.17 (23:30) 10.83 (23:30) 0 0 0 0 0
24-08-2019 26.3 (16:20) 21.9 (00:00) 24.1 17.22 (06:00) 10.28 (21:50) 0 0 0 0 0
23-08-2019 27.6 (13:00) 21.7 (00:00) 24.7 15.83 (07:00) 9.72 (06:20) 0 0 0 0 0
22-08-2019 24.1 (13:40) 21.4 (00:00) 22.8 18.33 (18:00) 10.83 (18:00) 0 0 0 0 0
21-08-2019 24.4 (13:00) 21.4 (00:00) 22.9 18.33 (18:00) 11.94 (22:20) 0 0 0 0 0

Gráficas

Temp. máximas Temp. mínimas Temp. medias Precipitaciones Rachas de viento máximas Velocidades máximas media en intervalos de 10 minutos

Datos horarios

Fecha y hora oficial Temperatura (ºC) Velocidad del viento (km/h) Dirección del viento Racha (km/h) Dirección de racha Precipitación (mm) Presión (hPa) Tendencia (hPa) Humedad (%)
2019-09-19 23:00:00 22.4 26 Norte 36 Norte 0 -- -- 85
2019-09-19 22:00:00 22.5 23 Norte 37 Norte 0 -- -- 85
2019-09-19 21:00:00 22.6 22 Norte 37 Noroeste 0 -- -- 86
2019-09-19 20:00:00 23 28 Norte 36 Norte 0 -- -- 84
2019-09-19 19:00:00 23.5 4 Norte 23 Nordeste 0 -- -- 76
2019-09-19 18:00:00 23.5 14 Nordeste 26 Nordeste 0 -- -- 71
2019-09-19 17:00:00 25.4 14 Nordeste 27 Nordeste 0 -- -- 65
2019-09-19 16:00:00 24.3 14 Nordeste 20 Nordeste 0 -- -- 68
2019-09-19 15:00:00 24.5 11 Norte 20 Nordeste 0 -- -- 70
2019-09-19 14:00:00 24.4 19 Norte 35 Norte 0 -- -- 68
2019-09-19 13:00:00 24.7 6 Norte 19 Nordeste 0 -- -- 67
2019-09-19 12:00:00 25.2 5 Norte 10 Norte 0 -- -- 62
2019-09-19 11:00:00 23.9 6 Norte 18 Norte 0 -- -- 70
2019-09-19 10:00:00 23.2 15 Norte 25 Norte 0 -- -- 77
2019-09-19 09:00:00 22.6 14 Norte 24 Norte 0 -- -- 80
2019-09-19 08:00:00 21.7 15 Norte 21 Nordeste 0 -- -- 82
2019-09-19 07:00:00 21.7 12 Nordeste 17 Norte 0 -- -- 82
2019-09-19 06:00:00 21.8 13 Norte 21 Nordeste 0 -- -- 82
2019-09-19 05:00:00 21.6 10 Norte 20 Nordeste 0 -- -- 82
2019-09-19 04:00:00 21.6 9 Norte 22 Nordeste 0 -- -- 83
2019-09-19 03:00:00 21.8 16 Nordeste 21 Nordeste 0 -- -- 85
2019-09-19 02:00:00 21.8 12 Nordeste 19 Nordeste 0 -- -- 84
2019-09-19 01:00:00 22 13 Nordeste 22 Nordeste 0 -- -- 84
2019-09-19 00:00:00 22.2 8 Norte 13 Nordeste 0 -- -- 84
2019-09-18 23:00:00 22.2 6 Nordeste 15 Nordeste 0 -- -- 84
2019-09-18 22:00:00 22.8 4 Sudeste 10 Oeste 0 -- -- 83
2019-09-18 21:00:00 22.6 9 Noroeste 24 Nordeste 0 -- -- 86
2019-09-18 20:00:00 22.9 17 Nordeste 27 Nordeste 0 -- -- 82
2019-09-18 19:00:00 23.5 14 Nordeste 22 Nordeste 0 -- -- 75
2019-09-18 18:00:00 24.2 13 Nordeste 28 Este 0 -- -- 70
2019-09-18 17:00:00 24.4 20 Este 30 Nordeste 0 -- -- 66
2019-09-18 16:00:00 25.1 17 Este 31 Nordeste 0 -- -- 64
2019-09-18 15:00:00 24.7 22 Este 33 Este 0 -- -- 66
2019-09-18 14:00:00 24.9 22 Este 32 Nordeste 0 -- -- 65
2019-09-18 13:00:00 25 15 Nordeste 21 Este 0 -- -- 67
2019-09-18 12:00:00 23.4 16 Nordeste 20 Nordeste 0 -- -- 74
2019-09-18 11:00:00 23.1 17 Nordeste 20 Nordeste 0 -- -- 75
2019-09-18 10:00:00 22.6 10 Nordeste 14 Nordeste 0 -- -- 77
2019-09-18 09:00:00 22.4 10 Norte 17 Nordeste 0 -- -- 79
2019-09-18 08:00:00 21.4 15 Nordeste 21 Norte 0 -- -- 83
2019-09-18 07:00:00 21.5 13 Nordeste 19 Nordeste 0 -- -- 84
2019-09-18 06:00:00 21.4 15 Nordeste 23 Nordeste 0 -- -- 83
2019-09-18 05:00:00 21.6 14 Nordeste 24 Nordeste 0 -- -- 85
2019-09-18 04:00:00 21.4 5 Nordeste 21 Norte 0 -- -- 86
2019-09-18 03:00:00 21.8 15 Nordeste 22 Este 0 -- -- 87
2019-09-18 02:00:00 21.4 9 Este 15 Nordeste 0 -- -- 85
2019-09-18 01:00:00 21.9 16 Nordeste 22 Nordeste 0 -- -- 86
2019-09-18 00:00:00 21.9 15 Nordeste 26 Nordeste 0 -- -- 86
2019-09-17 23:00:00 22.3 19 Nordeste 28 Nordeste 0 -- -- 86
2019-09-17 22:00:00 22.6 6 Este 17 Nordeste 0 -- -- 85
2019-09-17 21:00:00 22.8 17 Nordeste 26 Nordeste 0 -- -- 87
2019-09-17 20:00:00 22.6 6 Norte 20 Nordeste 0 -- -- 85
2019-09-15 17:00:00 -- -- -- -- -- -- -- -- --
2019-09-15 16:00:00 24.7 22 Este 33 Este 0 -- -- 71
2019-09-15 15:00:00 24.4 23 Este 31 Este 0 -- -- 72
2019-09-15 14:00:00 24.4 21 Este 33 Este 0 -- -- 69
2019-09-15 13:00:00 25 24 Este 32 Este 0 -- -- 61
2019-09-15 12:00:00 25.2 18 Este 25 Este 0 -- -- 59
2019-09-15 11:00:00 24.6 15 Nordeste 23 Nordeste 0 -- -- 60
2019-09-15 10:00:00 24.2 9 Este 14 Este 0 -- -- 69
2019-09-15 09:00:00 23.8 0 Calma 5 Norte 0 -- -- 80
2019-09-15 08:00:00 20.6 2 Oeste 7 Sudoeste 0 -- -- 89
2019-09-15 07:00:00 20.5 0 Calma 5 Noroeste 0 -- -- 89
2019-09-15 06:00:00 21.2 4 Noroeste 14 Nordeste 0 -- -- 86
2019-09-15 05:00:00 21.5 12 Nordeste 19 Nordeste 0 -- -- 89
2019-09-15 04:00:00 21.9 15 Nordeste 21 Nordeste 0 -- -- 88
2019-09-15 03:00:00 21.9 17 Nordeste 22 Nordeste 0 -- -- 87
2019-09-15 02:00:00 22 15 Nordeste 22 Este 0 -- -- 87
2019-09-15 01:00:00 22.2 12 Nordeste 21 Nordeste 0 -- -- 86
2019-09-15 00:00:00 22.2 13 Nordeste 19 Este 0 -- -- 85
2019-09-14 23:00:00 22.4 15 Nordeste 23 Nordeste 0 -- -- 84
2019-09-14 22:00:00 22.7 19 Nordeste 24 Nordeste 0 -- -- 83
2019-09-14 21:00:00 22.8 9 Oeste 13 Oeste 0 -- -- 85
2019-09-14 20:00:00 23.3 3 Sur 15 Nordeste 0 -- -- 83
2019-09-14 19:00:00 23.2 13 Nordeste 17 Nordeste 0 -- -- 81
2019-09-14 18:00:00 24.3 12 Este 19 Este 0 -- -- 71
2019-09-14 17:00:00 24.7 5 Nordeste 15 Norte 0 -- -- 68
2019-09-14 16:00:00 24 11 Nordeste 16 Nordeste 0 -- -- 72
2019-09-14 15:00:00 24.8 12 Nordeste 17 Nordeste 0 -- -- 68
2019-09-14 14:00:00 25.4 9 Este 14 Nordeste 0 -- -- 67
2019-09-14 13:00:00 24.9 7 Norte 12 Nordeste 0 -- -- 66
2019-09-14 12:00:00 24.5 8 Este 10 Sudeste 0 -- -- 67
2019-09-14 11:00:00 25.2 3 Norte 6 Nordeste 0 -- -- 63
2019-09-14 10:00:00 23.6 5 Nordeste 14 Norte 0 -- -- 79
2019-09-14 09:00:00 22.5 9 Norte 14 Norte 0 -- -- 84
2019-09-14 08:00:00 21.6 10 Norte 20 Norte 0 -- -- 85
2019-09-14 07:00:00 21.6 11 Norte 18 Norte 0 -- -- 86
2019-09-14 06:00:00 21.7 13 Norte 19 Norte 0 -- -- 86
2019-09-14 05:00:00 -- -- -- -- -- -- -- -- --
2019-09-14 04:00:00 21.9 13 Norte 19 Norte 0 -- -- 88
2019-09-14 03:00:00 21.8 13 Norte 19 Noroeste 0 -- -- 87
2019-09-14 02:00:00 21.9 18 Norte 25 Norte 0 -- -- 88
2019-09-14 01:00:00 22 17 Norte 30 Norte 0 -- -- 90
2019-09-14 00:00:00 22.2 18 Norte 24 Norte 0 -- -- 89
2019-09-13 23:00:00 22.2 18 Norte 26 Norte 0 -- -- 88
2019-09-13 22:00:00 22.3 19 Norte 32 Norte 0 -- -- 89
2019-09-13 21:00:00 22.4 25 Norte 34 Norte 0 -- -- 89
2019-09-13 20:00:00 22.8 27 Norte 36 Norte 0 -- -- 86
2019-09-13 19:00:00 23.4 26 Norte 39 Norte 0 -- -- 80
2019-09-13 18:00:00 23.7 29 Norte 39 Noroeste 0 -- -- 77
2019-09-13 17:00:00 23.7 31 Noroeste 45 Noroeste 0 -- -- 74
2019-09-13 16:00:00 23.6 35 Noroeste 49 Noroeste 0 -- -- 75
2019-09-13 15:00:00 23.7 33 Noroeste 42 Noroeste 0 -- -- 74
2019-09-13 14:00:00 23.7 34 Noroeste 48 Noroeste 0 -- -- 74
2019-09-13 13:00:00 23.7 32 Noroeste 39 Norte 0 -- -- 74
2019-09-13 12:00:00 24 26 Norte 35 Norte 0 -- -- 72
2019-09-13 11:00:00 23.4 23 Norte 31 Norte 0 -- -- 72
2019-09-13 10:00:00 22.9 26 Norte 37 Norte 0 -- -- 79
2019-09-13 09:00:00 22.4 24 Norte 34 Norte 0 -- -- 83
2019-09-13 08:00:00 21.9 24 Norte 42 Norte 0 -- -- 85
2019-09-13 07:00:00 21.8 19 Norte 28 Norte 0 -- -- 84
2019-09-13 06:00:00 21.9 22 Norte 33 Norte 0 -- -- 83
2019-09-13 05:00:00 22 24 Norte 33 Norte 0 -- -- 85
2019-09-13 04:00:00 22.2 24 Norte 39 Norte 0 -- -- 86
2019-09-13 03:00:00 22.2 23 Norte 35 Norte 0 -- -- 87
2019-09-13 02:00:00 22.2 21 Norte 40 Norte 0 -- -- 87
2019-09-13 01:00:00 22.3 22 Norte 39 Norte 0 -- -- 88
2019-09-13 00:00:00 22.3 27 Norte 41 Noroeste 0 -- -- 89
2019-09-12 23:00:00 22.4 26 Norte 39 Norte 0 -- -- 89
2019-09-12 22:00:00 22.4 25 Norte 37 Norte 0 -- -- 89
2019-09-12 21:00:00 22.5 23 Norte 40 Noroeste 0 -- -- 88
2019-09-12 20:00:00 22.7 30 Noroeste 42 Noroeste 0 -- -- 86
2019-09-12 19:00:00 23.3 33 Noroeste 50 Noroeste 0 -- -- 79
2019-09-12 18:00:00 23.5 33 Noroeste 55 Noroeste 0 -- -- 76
2019-09-12 17:00:00 23.9 32 Noroeste 44 Noroeste 0 -- -- 74
2019-09-12 16:00:00 23.9 36 Norte 52 Noroeste 0 -- -- 72
2019-09-12 15:00:00 23.7 35 Noroeste 46 Noroeste 0 -- -- 71
2019-09-12 14:00:00 23.7 31 Noroeste 45 Noroeste 0 -- -- 70
2019-09-12 13:00:00 23.6 32 Noroeste 48 Noroeste 0 -- -- 70
2019-09-12 12:00:00 23.8 30 Norte 55 Norte 0 -- -- 68
2019-09-12 11:00:00 23.3 30 Norte 50 Norte 0 -- -- 74
2019-09-12 10:00:00 22.7 34 Norte 44 Norte 0 -- -- 78
2019-09-12 09:00:00 22.4 35 Norte 57 Norte 0 -- -- 82
2019-09-12 08:00:00 21.7 29 Norte 50 Norte 0 -- -- 85
2019-09-12 07:00:00 21.7 32 Norte 48 Norte 0 -- -- 85
2019-09-12 06:00:00 21.6 31 Norte 44 Norte 0 -- -- 83
2019-09-12 05:00:00 21.7 33 Norte 52 Norte 0 -- -- 84
2019-09-12 04:00:00 21.7 33 Norte 42 Norte 0 -- -- 82
2019-09-12 03:00:00 21.7 27 Norte 39 Norte 0 -- -- 79
2019-09-12 02:00:00 21.9 31 Norte 43 Noroeste 0 -- -- 73
2019-09-12 01:00:00 21.9 29 Norte 42 Norte 0 -- -- 70
2019-09-12 00:00:00 21.8 31 Norte 49 Noroeste 0 -- -- 68
2019-09-11 23:00:00 22 31 Norte 45 Norte 0 -- -- 67
2019-09-11 22:00:00 21.7 36 Norte 46 Norte 0 -- -- 67
2019-09-11 21:00:00 21.8 37 Norte 51 Norte 0 -- -- 67
2019-09-11 20:00:00 22.3 36 Norte 49 Norte 0 -- -- 67
2019-09-11 19:00:00 22.9 33 Norte 44 Norte 0 -- -- 65
2019-09-11 18:00:00 23.3 35 Norte 47 Norte 0 -- -- 63
2019-09-11 17:00:00 23.8 31 Noroeste 42 Norte 0 -- -- 58
2019-09-11 16:00:00 23.9 35 Noroeste 47 Noroeste 0 -- -- 59
2019-09-11 15:00:00 24 32 Norte 45 Noroeste 0 -- -- 60
2019-09-11 14:00:00 23.9 33 Norte 43 Norte 0 -- -- 62
2019-09-11 13:00:00 23.8 31 Norte 44 Norte 0 -- -- 61
2019-09-11 12:00:00 23.2 26 Noroeste 37 Noroeste 0 -- -- 74
2019-09-11 11:00:00 23.7 25 Norte 33 Norte 0 -- -- 68
2019-09-11 10:00:00 23.2 22 Norte 38 Norte 0 -- -- 64
2019-09-11 09:00:00 22.5 22 Norte 41 Norte 0 -- -- 64
2019-09-11 08:00:00 22.5 28 Norte 44 Norte 0 -- -- 70
2019-09-11 07:00:00 22.3 22 Norte 38 Norte 0 -- -- 64
2019-09-11 06:00:00 22.1 28 Norte 43 Norte 0 -- -- 64
2019-09-11 05:00:00 22.1 33 Norte 42 Norte 0 -- -- 66
2019-09-11 04:00:00 22.4 21 Norte 29 Norte 0 -- -- 69
2019-09-11 03:00:00 22.3 28 Norte 35 Norte 0 -- -- 70
2019-09-11 02:00:00 22.4 23 Norte 29 Norte 0 -- -- 73
2019-09-11 01:00:00 22.7 16 Norte 23 Norte 0 -- -- 75
2019-09-11 00:00:00 22.7 13 Norte 23 Norte 0 -- -- 77
2019-09-10 23:00:00 22.7 19 Norte 29 Norte 0 -- -- 78
2019-09-10 22:00:00 22.8 24 Norte 41 Norte 0 -- -- 76
2019-09-10 21:00:00 23.1 27 Norte 41 Norte 0 -- -- 75
2019-09-10 20:00:00 23.4 26 Norte 35 Norte 0 -- -- 78
2019-09-10 19:00:00 23.9 26 Norte 40 Norte 0 -- -- 78
2019-09-10 18:00:00 24.2 31 Norte 44 Norte 0 -- -- 73
2019-09-10 17:00:00 24.9 31 Norte 49 Norte 0 -- -- 70
2019-09-10 16:00:00 25.7 6 Nordeste 21 Nordeste 0 -- -- 64
2019-09-10 15:00:00 24.6 13 Norte 19 Nordeste 0 -- -- 69
2019-09-10 14:00:00 24.7 12 Norte 19 Norte 0 -- -- 68
2019-09-10 13:00:00 25.6 7 Norte 22 Este 0 -- -- 64
2019-09-10 12:00:00 25.7 11 Este 20 Nordeste 0 -- -- 65
2019-09-10 11:00:00 24.3 14 Nordeste 20 Norte 0 -- -- 68
2019-09-10 10:00:00 23.3 12 Norte 19 Norte 0 -- -- 76
2019-09-10 09:00:00 22.8 10 Norte 18 Norte 0 -- -- 76
2019-09-10 08:00:00 22 15 Norte 19 Nordeste 0 -- -- 80
2019-09-10 07:00:00 21.8 15 Norte 22 Norte 0 -- -- 80
2019-09-10 06:00:00 20.9 3 Noroeste 7 Este 0 -- -- 80
2019-09-10 05:00:00 21.4 0 Calma 16 Norte 0 -- -- 77
2019-09-10 04:00:00 21.8 14 Norte 23 Norte 0 -- -- 79
2019-09-10 03:00:00 21.9 18 Norte 23 Nordeste 0 -- -- 80
2019-09-10 02:00:00 22 19 Nordeste 23 Nordeste 0 -- -- 79
2019-09-10 01:00:00 21.9 3 Sur 14 Sudoeste 0 -- -- 80
2019-09-10 00:00:00 22.2 9 Sur 12 Sudoeste 0 -- -- 78
2019-09-09 23:00:00 22.6 7 Norte 25 Norte 0 -- -- 76
2019-09-09 22:00:00 22.7 22 Norte 33 Norte 0 -- -- 77
2019-09-09 21:00:00 23 10 Norte 38 Norte 0 -- -- 76
2019-09-09 20:00:00 23.4 28 Noroeste 35 Norte 0 -- -- 72
2019-09-09 19:00:00 24.5 7 Nordeste 12 Nordeste 0 -- -- 66
2019-09-09 18:00:00 24.5 4 Norte 12 Nordeste 0 -- -- 67
2019-09-09 17:00:00 23.7 12 Nordeste 16 Nordeste 0 -- -- 70
2019-09-09 16:00:00 24.4 11 Este 15 Este 0 -- -- 66
2019-09-09 15:00:00 25.1 6 Norte 12 Norte 0 -- -- 64
2019-09-09 14:00:00 23.9 11 Nordeste 18 Nordeste 0 -- -- 70
2019-09-09 13:00:00 23.5 15 Nordeste 25 Nordeste 0 -- -- 70
2019-09-09 12:00:00 24.6 13 Este 19 Este 0 -- -- 66
2019-09-09 11:00:00 24.8 5 Norte 8 Norte 0 -- -- 63
2019-09-09 10:00:00 23.7 5 Norte 11 Norte 0 -- -- 68
2019-09-09 09:00:00 22.6 8 Norte 14 Nordeste 0 -- -- 81
2019-09-09 08:00:00 21.6 7 Nordeste 12 Nordeste 0 -- -- 87
2019-09-09 07:00:00 21.4 8 Este 11 Nordeste 0 -- -- 88
2019-09-09 06:00:00 21.5 5 Norte 14 Norte 0 -- -- 86
2019-09-09 05:00:00 21.7 8 Norte 13 Norte 0 -- -- 87
2019-09-09 04:00:00 21.8 6 Nordeste 11 Norte 0 -- -- 87
2019-09-09 03:00:00 22.1 11 Norte 17 Norte 0 -- -- 86
2019-09-09 02:00:00 22.3 9 Nordeste 10 Nordeste 0 -- -- 86
2019-09-09 01:00:00 22.4 12 Nordeste 18 Nordeste 0 -- -- 86
2019-09-09 00:00:00 22.8 13 Norte 25 Norte 0 -- -- 85
2019-09-08 23:00:00 22.8 18 Norte 28 Norte 0 -- -- 86
2019-09-08 22:00:00 22.8 21 Norte 32 Norte 0 -- -- 89
2019-09-08 21:00:00 22.8 22 Norte 35 Noroeste 0 -- -- 90
2019-09-08 20:00:00 23.1 26 Norte 36 Norte 0 -- -- 88
2019-09-08 19:00:00 23.7 26 Norte 38 Norte 0 -- -- 84
2019-09-08 18:00:00 24.1 28 Noroeste 43 Noroeste 0 -- -- 82
2019-09-08 17:00:00 24.4 24 Noroeste 32 Noroeste 0 -- -- 79
2019-09-08 16:00:00 24.7 23 Noroeste 34 Noroeste 0 -- -- 79
2019-09-08 15:00:00 24.6 17 Noroeste 26 Noroeste 0 -- -- 78
2019-09-08 14:00:00 24.4 18 Noroeste 31 Noroeste 0 -- -- 80
2019-09-08 13:00:00 24.2 25 Norte 35 Norte 0 -- -- 82
2019-09-08 12:00:00 23.7 27 Norte 41 Noroeste 0 -- -- 85
2019-09-08 11:00:00 23.3 23 Norte 31 Norte 0 -- -- 87
2019-09-08 10:00:00 23.6 22 Norte 31 Norte 0 -- -- 87
2019-09-08 09:00:00 22.6 17 Norte 26 Norte 0 -- -- 92
2019-09-08 08:00:00 22.4 19 Norte 25 Norte 0 -- -- 92
2019-09-08 07:00:00 22.5 15 Norte 22 Norte 0 -- -- 92
2019-09-08 06:00:00 22.5 17 Norte 24 Norte 0 -- -- 92
2019-09-08 05:00:00 22.6 13 Noroeste 21 Noroeste 0 -- -- 88
2019-09-08 04:00:00 22.7 13 Noroeste 21 Noroeste 0 -- -- 87
2019-09-08 03:00:00 22.7 15 Noroeste 23 Noroeste 0 -- -- 88
2019-09-08 02:00:00 22.7 10 Noroeste 20 Noroeste 0 -- -- 86
2019-09-08 01:00:00 22.7 14 Noroeste 24 Noroeste 0 -- -- 83
2019-09-08 00:00:00 23 12 Noroeste 24 Noroeste 0 -- -- 81
2019-09-07 23:00:00 22.9 12 Noroeste 21 Noroeste 0 -- -- 84
2019-09-07 22:00:00 23 15 Noroeste 24 Noroeste 0 -- -- 80
2019-09-07 21:00:00 22.9 15 Noroeste 26 Noroeste 0 -- -- 79
2019-09-07 20:00:00 23 16 Noroeste 28 Noroeste 0 -- -- 77
2019-09-07 19:00:00 23.3 18 Noroeste 28 Noroeste 0 -- -- 72
2019-09-07 18:00:00 23.4 22 Noroeste 30 Noroeste 0 -- -- 69
2019-09-07 17:00:00 24.2 19 Noroeste 30 Noroeste 0 -- -- 67
2019-09-07 16:00:00 24.2 21 Noroeste 31 Noroeste 0 -- -- 67
2019-09-07 15:00:00 24.3 23 Noroeste 32 Noroeste 0 -- -- 64
2019-09-07 14:00:00 24.3 21 Noroeste 33 Noroeste 0 -- -- 63
2019-09-07 13:00:00 24 20 Noroeste 31 Noroeste 0 -- -- 62
2019-09-07 12:00:00 23.7 18 Noroeste 29 Noroeste 0 -- -- 63
2019-09-07 11:00:00 23.1 17 Noroeste 27 Norte 0 -- -- 69
2019-09-07 10:00:00 22.8 19 Noroeste 33 Noroeste 0 -- -- 70
2019-09-07 09:00:00 22.6 17 Noroeste 35 Noroeste 0 -- -- 68
2019-09-07 08:00:00 22.6 24 Noroeste 36 Noroeste 0 -- -- 75
2019-09-07 07:00:00 22.2 23 Noroeste 35 Noroeste 0 -- -- 78
2019-09-07 06:00:00 22.3 22 Noroeste 34 Noroeste 0 -- -- 74
2019-09-07 05:00:00 22.4 18 Noroeste 28 Norte 0 -- -- 75
2019-09-07 04:00:00 22.4 21 Noroeste 32 Noroeste 0 -- -- 76
2019-09-07 03:00:00 22.3 17 Noroeste 28 Norte 0 -- -- 78
2019-09-07 02:00:00 22.5 20 Norte 28 Noroeste 0 -- -- 80
2019-09-07 01:00:00 22.6 14 Noroeste 28 Noroeste 0 -- -- 73
2019-09-07 00:00:00 22.9 17 Noroeste 36 Norte 0 -- -- 70
2019-09-06 23:00:00 22.9 22 Noroeste 34 Noroeste 0 -- -- 71
2019-09-06 22:00:00 22.9 19 Noroeste 31 Noroeste 0 -- -- 71
2019-09-06 21:00:00 22.9 22 Noroeste 32 Noroeste 0 -- -- 77
2019-09-06 20:00:00 22.9 21 Noroeste 33 Noroeste 0 -- -- 78
2019-09-06 19:00:00 23.2 24 Noroeste 39 Noroeste 0 -- -- 76
2019-09-06 18:00:00 23.4 25 Noroeste 39 Noroeste 0 -- -- 73
2019-09-06 17:00:00 24.1 22 Noroeste 33 Noroeste 0 -- -- 70
2019-09-06 16:00:00 24.2 27 Noroeste 40 Noroeste 0 -- -- 71
2019-09-06 15:00:00 24.7 27 Norte 39 Noroeste 0 -- -- 75
2019-09-06 14:00:00 24.4 31 Noroeste 50 Noroeste 0 -- -- 79
2019-09-06 13:00:00 24.2 28 Noroeste 37 Norte 0 -- -- 82
2019-09-06 12:00:00 23.7 23 Norte 39 Norte 0 -- -- 84
2019-09-06 11:00:00 23.3 24 Noroeste 31 Noroeste 0 -- -- 85
2019-09-06 10:00:00 23.7 13 Noroeste 19 Oeste 0 -- -- 81
2019-09-06 09:00:00 22.8 12 Norte 16 Norte 0 -- -- 85
2019-09-06 08:00:00 21.8 13 Noroeste 22 Noroeste 0 -- -- 85
2019-09-06 07:00:00 21.8 17 Noroeste 31 Norte 0 -- -- 83
2019-09-06 06:00:00 22 25 Norte 33 Norte 0 -- -- 84
2019-09-06 05:00:00 22 21 Norte 28 Noroeste 0 -- -- 84
2019-09-06 04:00:00 22 14 Noroeste 22 Noroeste 0 -- -- 84
2019-09-06 03:00:00 21.9 17 Norte 32 Norte 0 -- -- 86
2019-09-06 02:00:00 22 17 Norte 27 Norte 0 -- -- 85
2019-09-06 01:00:00 22.3 20 Norte 28 Noroeste 0 -- -- 84
2019-09-06 00:00:00 22.5 13 Noroeste 18 Noroeste 0 -- -- 81
2019-09-05 23:00:00 22.7 12 Noroeste 24 Noroeste 0 -- -- 73
2019-09-05 22:00:00 22.8 15 Noroeste 24 Noroeste 0 -- -- 73
2019-09-05 21:00:00 23 14 Noroeste 24 Oeste 0 -- -- 72
2019-09-05 20:00:00 23.3 17 Noroeste 24 Noroeste 0 -- -- 70
2019-09-05 19:00:00 24.1 15 Oeste 30 Oeste 0 -- -- 70
2019-09-05 18:00:00 24.5 22 Oeste 35 Oeste 0 -- -- 66
2019-09-05 17:00:00 24.3 22 Oeste 33 Oeste 0 -- -- 60
2019-09-05 16:00:00 24.5 19 Noroeste 28 Noroeste 0 -- -- 58
2019-09-05 15:00:00 24.2 20 Noroeste 29 Noroeste 0 -- -- 61
2019-09-05 14:00:00 24.5 16 Noroeste 27 Oeste 0 -- -- 71
2019-09-05 13:00:00 24.2 13 Noroeste 22 Oeste 0 -- -- 74
2019-09-05 12:00:00 23.7 13 Noroeste 20 Noroeste 0 -- -- 75
2019-09-05 11:00:00 23.6 12 Noroeste 17 Noroeste 0 -- -- 80
2019-09-05 10:00:00 23.4 9 Noroeste 14 Noroeste 0 -- -- 82
2019-09-05 09:00:00 22.8 9 Norte 13 Norte 0 -- -- 85
2019-09-05 08:00:00 21.9 12 Norte 20 Noroeste 0 -- -- 89
2019-09-05 07:00:00 21.8 15 Norte 18 Norte 0 -- -- 89
2019-09-05 06:00:00 21.9 14 Norte 22 Noroeste 0 -- -- 89
2019-09-05 05:00:00 21.8 17 Norte 24 Norte 0 -- -- 89
2019-09-05 04:00:00 21.9 16 Norte 26 Norte 0 -- -- 89
2019-09-05 03:00:00 22.1 19 Norte 26 Noroeste 0 -- -- 88
2019-09-05 02:00:00 22 18 Norte 27 Norte 0 -- -- 88
2019-09-05 01:00:00 22 18 Noroeste 24 Noroeste 0 -- -- 86
2019-09-05 00:00:00 22.2 15 Noroeste 24 Norte 0 -- -- 84
2019-09-04 23:00:00 22.3 18 Norte 25 Noroeste 0 -- -- 82
2019-09-04 22:00:00 22.4 18 Norte 28 Norte 0 -- -- 84
2019-09-04 21:00:00 22.6 22 Norte 34 Norte 0 -- -- 83
2019-09-04 20:00:00 22.8 23 Noroeste 40 Noroeste 0 -- -- 75
2019-09-04 19:00:00 23.4 21 Noroeste 38 Noroeste 0 -- -- 69
2019-09-04 18:00:00 23.9 22 Noroeste 35 Noroeste 0 -- -- 69
2019-09-04 17:00:00 24.2 20 Norte 28 Noroeste 0 -- -- 69
2019-09-04 16:00:00 24.3 18 Noroeste 26 Noroeste 0 -- -- 61
2019-09-04 15:00:00 24.9 14 Norte 21 Norte 0 -- -- 64
2019-09-04 14:00:00 24.5 13 Norte 30 Noroeste 0 -- -- 69
2019-09-04 13:00:00 24.2 18 Noroeste 28 Noroeste 0 -- -- 71
2019-09-04 12:00:00 23.8 22 Noroeste 29 Norte 0 -- -- 74
2019-09-04 11:00:00 23.6 18 Noroeste 23 Noroeste 0 -- -- 74
2019-09-04 10:00:00 23.3 9 Norte 23 Norte 0 -- -- 77
2019-09-04 09:00:00 22.4 12 Norte 18 Norte 0 -- -- 83
2019-09-04 08:00:00 21.6 13 Norte 18 Norte 0 -- -- 87
2019-09-04 07:00:00 21.5 16 Norte 23 Norte 0 -- -- 88
2019-09-04 06:00:00 21.7 15 Norte 26 Norte 0 -- -- 88
2019-09-04 05:00:00 21.8 17 Norte 22 Norte 0 -- -- 87
2019-09-04 04:00:00 21.8 16 Norte 21 Norte 0 -- -- 87
2019-09-04 03:00:00 21.8 15 Norte 22 Norte 0 -- -- 85
2019-09-04 02:00:00 21.9 13 Norte 20 Norte 0 -- -- 83
2019-09-04 01:00:00 22 10 Norte 21 Norte 0 -- -- 82
2019-09-04 00:00:00 22.1 19 Norte 31 Norte 0 -- -- 82
2019-09-03 23:00:00 22.1 18 Norte 27 Norte 0 -- -- 83
2019-09-03 22:00:00 22.4 21 Norte 32 Noroeste 0 -- -- 81
2019-09-03 21:00:00 22.5 24 Norte 36 Norte 0 -- -- 82
2019-09-03 20:00:00 22.9 23 Norte 40 Noroeste 0 -- -- 78
2019-09-03 19:00:00 23.4 25 Noroeste 35 Noroeste 0 -- -- 73
2019-09-03 18:00:00 23.9 24 Noroeste 33 Noroeste 0 -- -- 69
2019-09-03 17:00:00 24.3 18 Noroeste 26 Noroeste 0 -- -- 66
2019-09-03 16:00:00 24.3 17 Noroeste 22 Noroeste 0 -- -- 66
2019-09-03 15:00:00 24.6 14 Norte 19 Norte 0 -- -- 68
2019-09-03 14:00:00 24.4 8 Nordeste 21 Noroeste 0 -- -- 64
2019-09-03 13:00:00 24 15 Noroeste 22 Noroeste 0 -- -- 75
2019-09-03 12:00:00 23.8 13 Noroeste 20 Noroeste 0 -- -- 74
2019-09-03 11:00:00 23.4 10 Noroeste 15 Norte 0 -- -- 78
2019-09-03 10:00:00 22.8 14 Norte 19 Norte 0 -- -- 80
2019-09-03 09:00:00 22.4 11 Norte 15 Norte 0 -- -- 82
2019-09-03 08:00:00 21.5 9 Norte 11 Norte 0 -- -- 83
2019-09-03 07:00:00 21.4 9 Norte 13 Norte 0 -- -- 83
2019-09-03 06:00:00 21.5 6 Nordeste 12 Nordeste 0 -- -- 76
2019-09-03 05:00:00 21.4 6 Norte 10 Nordeste 0 -- -- 75
2019-09-03 04:00:00 21.4 8 Norte 13 Norte 0 -- -- 77
2019-09-03 03:00:00 21.7 11 Nordeste 14 Norte 0 -- -- 76
2019-09-03 02:00:00 21.8 12 Norte 20 Norte 0 -- -- 77
2019-09-03 01:00:00 22 17 Norte 26 Norte 0 -- -- 76
2019-09-03 00:00:00 22.1 18 Norte 26 Norte 0 -- -- 78
2019-09-02 23:00:00 22.3 18 Norte 25 Norte 0 -- -- 78
2019-09-02 22:00:00 22.2 16 Norte 31 Norte 0 -- -- 81
2019-09-02 21:00:00 22.6 22 Norte 32 Norte 0 -- -- 75
2019-09-02 20:00:00 23 23 Noroeste 29 Noroeste 0 -- -- 68
2019-09-02 19:00:00 23.9 13 Norte 23 Norte 0 -- -- 63
2019-09-02 18:00:00 24 12 Norte 27 Noroeste 0 -- -- 59
2019-09-02 17:00:00 24.3 18 Noroeste 26 Noroeste 0 -- -- 57
2019-09-02 16:00:00 24.6 15 Norte 24 Noroeste 0 -- -- 58
2019-09-02 15:00:00 24.5 18 Noroeste 26 Norte 0 -- -- 55
2019-09-02 14:00:00 24.5 17 Noroeste 29 Noroeste 0 -- -- 53
2019-09-02 13:00:00 24.1 25 Noroeste 36 Norte 0 -- -- 54
2019-09-02 12:00:00 24.1 12 Noroeste 22 Noroeste 0 -- -- 55
2019-09-02 11:00:00 24 5 Norte 8 Norte 0 -- -- 54
2019-09-02 10:00:00 23.3 8 Norte 14 Norte 0 -- -- 60
2019-09-02 09:00:00 21.8 13 Norte 17 Norte 0 -- -- 70
2019-09-02 08:00:00 21.6 10 Norte 20 Norte 0 -- -- 72
2019-09-02 07:00:00 21.5 16 Norte 25 Norte 0 -- -- 72
2019-09-02 06:00:00 21.5 22 Norte 28 Norte 0 -- -- 81
2019-09-02 05:00:00 21.5 22 Norte 28 Norte 0 -- -- 83
2019-09-02 04:00:00 21.7 18 Norte 22 Norte 0 -- -- 84
2019-09-02 03:00:00 21.8 17 Norte 24 Nordeste 0 -- -- 83
2019-09-02 02:00:00 21.9 19 Nordeste 26 Nordeste 0 -- -- 82
2019-09-02 01:00:00 21.9 18 Norte 24 Norte 0 -- -- 81
2019-09-02 00:00:00 22 23 Norte 31 Nordeste 0 -- -- 82
2019-09-01 23:00:00 22.2 21 Norte 27 Norte 0 -- -- 83
2019-09-01 22:00:00 22.3 21 Norte 30 Norte 0 -- -- 84
2019-09-01 21:00:00 22.3 22 Norte 33 Norte 0 -- -- 85
2019-09-01 20:00:00 22.9 24 Norte 32 Norte 0 -- -- 79
2019-09-01 19:00:00 23.6 4 Norte 13 Nordeste 0 -- -- 73
2019-09-01 18:00:00 24 3 Nordeste 11 Este 0 -- -- 71
2019-09-01 17:00:00 23.4 7 Nordeste 15 Nordeste 0 -- -- 75
2019-09-01 16:00:00 23.6 13 Norte 25 Este 0 -- -- 72
2019-09-01 15:00:00 24.3 21 Este 29 Nordeste 0 -- -- 66
2019-09-01 14:00:00 24.2 18 Este 29 Este 0 -- -- 71
2019-09-01 13:00:00 23.9 11 Norte 31 Norte 0 -- -- 75
2019-09-01 12:00:00 24.2 19 Norte 26 Norte 0 -- -- 77
2019-09-01 11:00:00 23.8 18 Norte 30 Norte 0 -- -- 78
2019-09-01 10:00:00 23.3 15 Norte 23 Norte 0 -- -- 70
2019-09-01 09:00:00 22.6 14 Norte 24 Nordeste 0 -- -- 78
2019-09-01 08:00:00 22.2 14 Nordeste 17 Nordeste 0 -- -- 81
2019-09-01 07:00:00 22.2 16 Nordeste 23 Nordeste 0 -- -- 78
2019-09-01 06:00:00 22 17 Norte 30 Norte 0 -- -- 81
2019-09-01 05:00:00 22.2 24 Norte 28 Norte 0 -- -- 81
2019-09-01 04:00:00 22.2 22 Norte 31 Nordeste 0 -- -- 82
2019-09-01 03:00:00 22.3 21 Nordeste 27 Nordeste 0 -- -- 83
2019-09-01 02:00:00 22.4 15 Norte 22 Noroeste 0 -- -- 85
2019-09-01 01:00:00 22.5 18 Norte 25 Norte 0 -- -- 84
2019-09-01 00:00:00 22.4 19 Norte 32 Norte 0 -- -- 85
2019-08-31 23:00:00 22.3 28 Norte 40 Norte 0 -- -- 84
2019-08-31 22:00:00 22.4 31 Norte 46 Norte 0 -- -- 84
2019-08-31 21:00:00 22.5 30 Norte 45 Norte 0 -- -- 85
2019-08-31 20:00:00 22.7 34 Norte 46 Norte 0 -- -- 83
2019-08-31 19:00:00 23.1 36 Norte 49 Norte 0 -- -- 79
2019-08-31 18:00:00 23.8 31 Norte 44 Noroeste 0 -- -- 75
2019-08-31 17:00:00 24.6 7 Nordeste 13 Norte 0 -- -- 69
2019-08-31 16:00:00 24.1 12 Norte 24 Nordeste 0 -- -- 72
2019-08-31 15:00:00 24.1 19 Nordeste 40 Este 0 -- -- 70
2019-08-31 14:00:00 24.1 33 Este 54 Este 0 -- -- 70
2019-08-31 13:00:00 24.5 30 Este 39 Este 0 -- -- 69
2019-08-31 12:00:00 25.4 14 Nordeste 25 Nordeste 0 -- -- 65
2019-08-31 11:00:00 24.4 7 Norte 22 Nordeste 0 -- -- 73
2019-08-31 10:00:00 25 5 Sudeste 8 Sudeste 0 -- -- 71
2019-08-31 09:00:00 23.2 9 Norte 21 Norte 0 -- -- 82
2019-08-31 08:00:00 22.1 14 Norte 26 Norte 0 -- -- 86
2019-08-31 07:00:00 21.9 14 Norte 21 Norte 0 -- -- 88
2019-08-31 06:00:00 21.8 6 Nordeste 14 Norte 0 -- -- 88
2019-08-31 05:00:00 22.1 14 Norte 20 Norte 0 -- -- 88
2019-08-31 04:00:00 22.2 10 Norte 18 Nordeste 0 -- -- 90
2019-08-31 03:00:00 22.2 9 Nordeste 19 Norte 0 -- -- 89
2019-08-31 02:00:00 22.5 17 Norte 29 Norte 0 -- -- 87
2019-08-31 01:00:00 22.6 25 Norte 33 Norte 0 -- -- 88
2019-08-31 00:00:00 22.7 18 Noroeste 25 Noroeste 0 -- -- 87
2019-08-30 23:00:00 22.9 9 Sudeste 17 Norte 0 -- -- 87
2019-08-30 22:00:00 22.9 17 Norte 26 Norte 0 -- -- 89
2019-08-30 21:00:00 22.6 19 Norte 31 Norte 0 -- -- 89
2019-08-30 20:00:00 23.8 4 Sudeste 24 Noroeste 0 -- -- 84
2019-08-30 19:00:00 23.8 21 Noroeste 40 Norte 0 -- -- 86
2019-08-30 18:00:00 24.2 13 Noroeste 21 Noroeste 0 -- -- 77
2019-08-30 17:00:00 24.4 17 Este 27 Sudeste 0 -- -- 78
2019-08-30 16:00:00 24.7 19 Este 26 Sudeste 0 -- -- 78
2019-08-30 15:00:00 25.6 8 Este 20 Norte 0 -- -- 72
2019-08-30 14:00:00 24.9 9 Nordeste 43 Noroeste 0 -- -- 79
2019-08-30 13:00:00 23.3 28 Noroeste 37 Noroeste 0 -- -- 84
2019-08-30 12:00:00 24 18 Norte 29 Noroeste 0 -- -- 81
2019-08-30 11:00:00 23.9 13 Norte 26 Noroeste 0 -- -- 84
2019-08-30 10:00:00 23.6 14 Noroeste 19 Norte 0 -- -- 85
2019-08-30 09:00:00 22.7 12 Norte 25 Norte 0 -- -- 88
2019-08-30 08:00:00 21.8 19 Norte 29 Norte 0 -- -- 90
2019-08-30 07:00:00 22 17 Norte 25 Norte 0 -- -- 90
2019-08-30 06:00:00 21.9 22 Norte 30 Norte 0 -- -- 89
2019-08-30 05:00:00 22 24 Norte 32 Norte 0 -- -- 90
2019-08-30 04:00:00 22.1 20 Norte 31 Norte 0 -- -- 90
2019-08-30 03:00:00 22.2 25 Norte 33 Norte 0 -- -- 91
2019-08-30 02:00:00 22.1 9 Noroeste 14 Norte 0 -- -- 91
2019-08-30 01:00:00 22.1 2 Sudeste 12 Sudeste 0 -- -- 90
2019-08-30 00:00:00 22.8 6 Sudeste 12 Sudeste 0 -- -- 89
2019-08-29 23:00:00 22.8 7 Noroeste 18 Nordeste 0 -- -- 87
2019-08-29 22:00:00 23.3 10 Nordeste 16 Nordeste 0 -- -- 85
2019-08-29 21:00:00 23.7 2 Sudeste 18 Este 0 -- -- 85
2019-08-29 20:00:00 24.5 6 Oeste 15 Noroeste 0 -- -- 82
2019-08-29 19:00:00 24.5 13 Sudeste 35 Noroeste 0 -- -- 85
2019-08-29 18:00:00 25 13 Noroeste 23 Este 0 -- -- 79
2019-08-29 17:00:00 25.3 14 Este 24 Este 0 -- -- 80
2019-08-29 16:00:00 25.2 13 Noroeste 24 Norte 0 -- -- 77
2019-08-29 15:00:00 25.5 16 Nordeste 23 Nordeste 0 -- -- 77
2019-08-29 14:00:00 24 14 Nordeste 32 Nordeste 0 -- -- 85
2019-08-29 13:00:00 25.1 23 Este 32 Nordeste 0 -- -- 79
2019-08-29 12:00:00 24.1 17 Este 25 Sudeste 0 -- -- 84
2019-08-29 11:00:00 24.5 8 Nordeste 24 Norte 0 -- -- 82
2019-08-29 10:00:00 23.1 20 Norte 28 Norte 0 -- -- 87
2019-08-29 09:00:00 22.3 19 Norte 30 Norte 0 -- -- 90
2019-08-29 08:00:00 21.7 23 Norte 31 Norte 0 -- -- 93
2019-08-29 07:00:00 21.6 20 Norte 32 Norte 0 -- -- 94
2019-08-29 06:00:00 21.8 21 Norte 27 Norte 0 -- -- 92
2019-08-29 05:00:00 22.2 14 Noroeste 19 Noroeste 0 -- -- 89
2019-08-29 04:00:00 22.3 11 Nordeste 18 Nordeste 0 -- -- 87
2019-08-29 03:00:00 22.4 13 Nordeste 21 Nordeste 0 -- -- 87
2019-08-29 02:00:00 22.4 15 Nordeste 23 Nordeste 0 -- -- 86
2019-08-29 01:00:00 22.4 15 Nordeste 19 Nordeste 0 -- -- 87
2019-08-29 00:00:00 22.4 12 Nordeste 20 Nordeste 0 -- -- 87
2019-08-28 23:00:00 22.7 11 Norte 31 Norte 0 -- -- 86
2019-08-28 22:00:00 22.5 22 Norte 34 Norte 0 -- -- 89
2019-08-28 21:00:00 22.5 25 Norte 37 Noroeste 0 -- -- 88
2019-08-28 20:00:00 22.7 30 Noroeste 45 Noroeste 0 -- -- 87
2019-08-28 19:00:00 23.2 31 Norte 42 Noroeste 0 -- -- 85
2019-08-28 18:00:00 23.6 35 Noroeste 46 Norte 0 -- -- 83
2019-08-28 17:00:00 23.8 33 Noroeste 51 Norte 0 -- -- 82
2019-08-28 16:00:00 23.8 34 Noroeste 41 Noroeste 0 -- -- 81
2019-08-28 15:00:00 24 28 Noroeste 42 Norte 0 -- -- 80
2019-08-28 14:00:00 23.8 29 Noroeste 49 Noroeste 0 -- -- 81
2019-08-28 13:00:00 23.6 28 Norte 37 Noroeste 0 -- -- 80
2019-08-28 12:00:00 24.3 15 Noroeste 21 Norte 0 -- -- 70
2019-08-28 11:00:00 25.1 4 Norte 8 Norte 0 -- -- 67
2019-08-28 10:00:00 23.6 5 Norte 17 Nordeste 0 -- -- 79
2019-08-28 09:00:00 22.6 11 Norte 19 Norte 0 -- -- 84
2019-08-28 08:00:00 22.1 9 Norte 23 Norte 0 -- -- 86
2019-08-28 07:00:00 22 24 Norte 38 Nordeste 0 -- -- 85
2019-08-28 06:00:00 22.1 19 Nordeste 27 Nordeste 0 -- -- 86
2019-08-28 05:00:00 22.2 13 Norte 21 Norte 0 -- -- 85
2019-08-28 04:00:00 22.2 10 Norte 21 Nordeste 0 -- -- 87
2019-08-28 03:00:00 22.3 14 Nordeste 21 Nordeste 0 -- -- 86
2019-08-28 02:00:00 22.3 14 Norte 24 Este 0 -- -- 86
2019-08-28 01:00:00 22.5 21 Este 28 Nordeste 0 -- -- 85
2019-08-28 00:00:00 22.6 15 Norte 36 Norte 0 -- -- 84
2019-08-27 23:00:00 22.8 16 Norte 27 Noroeste 0 -- -- 85
2019-08-27 22:00:00 22.7 9 Noroeste 19 Noroeste 0 -- -- 85
2019-08-27 21:00:00 22.8 15 Nordeste 28 Nordeste 0 -- -- 86
2019-08-27 20:00:00 23.2 4 Este 14 Noroeste 0 -- -- 77
2019-08-27 19:00:00 23.3 5 Nordeste 22 Norte 0 -- -- 72
2019-08-27 18:00:00 23.7 10 Norte 22 Norte 0 -- -- 69
2019-08-27 17:00:00 24.3 12 Norte 36 Este 0 -- -- 66
2019-08-27 16:00:00 24.7 30 Este 44 Este 0 -- -- 63
2019-08-27 15:00:00 24.6 27 Nordeste 37 Nordeste 0 -- -- 65
2019-08-27 14:00:00 24.9 26 Nordeste 38 Nordeste 0 -- -- 62
2019-08-27 13:00:00 24.9 27 Este 41 Nordeste 0 -- -- 62
2019-08-27 12:00:00 25 18 Nordeste 26 Nordeste 0 -- -- 64
2019-08-27 11:00:00 24.6 10 Nordeste 17 Nordeste 0 -- -- 67
2019-08-27 10:00:00 23.1 10 Nordeste 18 Nordeste 0 -- -- 83
2019-08-27 09:00:00 22.4 15 Nordeste 28 Nordeste 0 -- -- 84
2019-08-27 08:00:00 21.7 12 Nordeste 16 Nordeste 0 -- -- 87
2019-08-27 07:00:00 21.4 8 Este 22 Este 0 -- -- 86
2019-08-27 06:00:00 21.5 8 Nordeste 15 Nordeste 0 -- -- 88
2019-08-27 05:00:00 21.6 15 Nordeste 22 Nordeste 0 -- -- 87
2019-08-27 04:00:00 21.9 15 Nordeste 22 Nordeste 0 -- -- 86
2019-08-27 03:00:00 21.8 8 Noroeste 23 Norte 0 -- -- 85
2019-08-27 02:00:00 21.9 7 Norte 25 Nordeste 0 -- -- 88
2019-08-27 01:00:00 22.1 14 Nordeste 24 Nordeste 0 -- -- 87
2019-08-27 00:00:00 22.3 14 Nordeste 22 Nordeste 0 -- -- 87
2019-08-26 23:00:00 22.3 7 Nordeste 24 Nordeste 0 -- -- 89
2019-08-26 22:00:00 22.6 19 Nordeste 35 Nordeste 0 -- -- 87
2019-08-26 21:00:00 22.7 25 Nordeste 36 Nordeste 0 -- -- 86
2019-08-26 20:00:00 23.3 13 Norte 41 Este 0 -- -- 83
2019-08-26 19:00:00 23.3 28 Este 39 Este 0 -- -- 83
2019-08-26 18:00:00 25.5 8 Nordeste 32 Nordeste 0 -- -- 69
2019-08-26 17:00:00 23.9 27 Nordeste 38 Nordeste 0 -- -- 78
2019-08-26 16:00:00 23.6 31 Nordeste 42 Nordeste 0 -- -- 80
2019-08-26 15:00:00 24.2 27 Nordeste 37 Nordeste 0 -- -- 79
2019-08-26 14:00:00 23.9 23 Nordeste 36 Este 0 -- -- 81
2019-08-26 13:00:00 24.1 25 Este 34 Este 0 -- -- 79
2019-08-26 12:00:00 23.7 22 Este 41 Este 0 -- -- 83
2019-08-26 11:00:00 22.8 19 Nordeste 30 Nordeste 0 -- -- 88
2019-08-26 10:00:00 22.8 15 Nordeste 24 Nordeste 0 -- -- 86
2019-08-26 09:00:00 22.2 17 Norte 27 Noroeste 0 -- -- 92
2019-08-26 08:00:00 22.1 4 Sudeste 25 Sudeste 0 -- -- 93
2019-08-26 07:00:00 22.3 7 Sudeste 24 Noroeste 0 -- -- 92
2019-08-26 06:00:00 22 20 Norte 39 Noroeste 0 -- -- 94
2019-08-26 05:00:00 22 29 Norte 39 Norte 0 -- -- 93
2019-08-26 04:00:00 22.1 18 Noroeste 27 Noroeste 0 -- -- 92
2019-08-26 03:00:00 22.1 8 Este 20 Este 0 -- -- 94
2019-08-26 02:00:00 22.2 14 Este 27 Este 0 -- -- 94
2019-08-26 01:00:00 22.2 22 Este 37 Este 0 -- -- 93
2019-08-26 00:00:00 22.6 25 Este 51 Este 0 -- -- 91
2019-08-25 23:00:00 23.9 21 Este 36 Nordeste 0 -- -- 75
2019-08-25 22:00:00 23.7 18 Este 30 Sudeste 0 -- -- 75
2019-08-25 21:00:00 25.2 15 Sudeste 26 Sur 0 -- -- 62
2019-08-25 20:00:00 25 0 Calma 13 Oeste 0 -- -- 72
2019-08-25 19:00:00 24.8 15 Noroeste 29 Noroeste 0 -- -- 72
2019-08-25 18:00:00 25.8 14 Oeste 20 Oeste 0 -- -- 68
2019-08-25 17:00:00 25.5 9 Este 30 Norte 0 -- -- 76
2019-08-25 16:00:00 24.3 27 Nordeste 43 Nordeste 0 -- -- 86
2019-08-25 15:00:00 24.2 17 Este 42 Sudeste 0 -- -- 86
2019-08-25 14:00:00 25.6 11 Sudeste 33 Norte 0 -- -- 81
2019-08-25 13:00:00 25 19 Noroeste 30 Sudeste 0 -- -- 74
2019-08-25 12:00:00 24.7 22 Este 41 Sudoeste 0 -- -- 72
2019-08-25 11:00:00 24.6 22 Noroeste 41 Noroeste 0 -- -- 72
2019-08-25 10:00:00 23.8 13 Oeste 25 Norte 0 -- -- 81
2019-08-25 09:00:00 23.2 7 Noroeste 19 Oeste 0 -- -- 88
2019-08-25 08:00:00 22.8 10 Oeste 18 Oeste 0 -- -- 87
2019-08-25 07:00:00 23.4 4 Oeste 19 Sudoeste 0 -- -- 69
2019-08-25 06:00:00 23.2 5 Sudoeste 19 Sur 0 -- -- 74
2019-08-25 05:00:00 23.5 9 Sudoeste 20 Sudeste 0 -- -- 75
2019-08-25 04:00:00 24 20 Sudeste 35 Sudeste 0 -- -- 72
2019-08-25 03:00:00 22.9 8 Sudoeste 22 Oeste 0 -- -- 89
2019-08-25 02:00:00 23.1 10 Oeste 16 Oeste 0 -- -- 88
2019-08-25 01:00:00 23.2 11 Sudeste 28 Este 0 -- -- 90
2019-08-25 00:00:00 23 21 Nordeste 39 Nordeste 0 -- -- 92
2019-08-24 23:00:00 22.8 25 Este 45 Este 0 -- -- 94
2019-08-24 22:00:00 23.2 35 Este 50 Este 0 -- -- 91
2019-08-24 21:00:00 24.5 5 Sudeste 19 Noroeste 0 -- -- 86
2019-08-24 20:00:00 24.5 12 Noroeste 21 Noroeste 0 -- -- 86
2019-08-24 19:00:00 25.3 16 Noroeste 24 Noroeste 0 -- -- 83
2019-08-24 18:00:00 24.9 15 Noroeste 22 Oeste 0 -- -- 84
2019-08-24 17:00:00 26.1 9 Noroeste 18 Noroeste 0 -- -- 79
2019-08-24 16:00:00 25.6 5 Nordeste 12 Norte 0 -- -- 81
2019-08-24 15:00:00 24.8 10 Norte 23 Nordeste 0 -- -- 86
2019-08-24 14:00:00 25.4 15 Nordeste 24 Nordeste 0 -- -- 79
2019-08-24 13:00:00 25.5 14 Este 21 Este 0 -- -- 80
2019-08-24 12:00:00 24.6 16 Noroeste 28 Norte 0 -- -- 86
2019-08-24 11:00:00 24.7 15 Norte 24 Noroeste 0 -- -- 85
2019-08-24 10:00:00 23.9 10 Norte 17 Norte 0 -- -- 89
2019-08-24 09:00:00 22.7 15 Norte 32 Norte 0 -- -- 94
2019-08-24 08:00:00 22.2 27 Norte 35 Noroeste 0 -- -- 96
2019-08-24 07:00:00 22.1 24 Noroeste 44 Noroeste 0 -- -- 96
2019-08-24 06:00:00 22.2 32 Noroeste 62 Noroeste 0 -- -- 96
2019-08-24 05:00:00 22.2 22 Noroeste 36 Noroeste 0 -- -- 96
2019-08-24 04:00:00 22.2 22 Noroeste 34 Noroeste 0 -- -- 95
2019-08-24 03:00:00 22.3 19 Noroeste 30 Noroeste 0 -- -- 94
2019-08-24 02:00:00 22.4 10 Noroeste 14 Noroeste 0 -- -- 93
2019-08-24 01:00:00 22.5 8 Norte 18 Norte 0 -- -- 94
2019-08-24 00:00:00 22.6 9 Norte 29 Norte 0 -- -- 94
2019-08-23 23:00:00 22.6 20 Norte 34 Norte 0 -- -- 94
2019-08-23 22:00:00 22.6 24 Norte 42 Norte 0 -- -- 95
2019-08-23 21:00:00 22.7 27 Norte 36 Norte 0 -- -- 93
2019-08-23 20:00:00 23.3 15 Norte 35 Noroeste 0 -- -- 92
2019-08-23 19:00:00 23.4 26 Noroeste 36 Noroeste 0 -- -- 90
2019-08-23 18:00:00 23.8 23 Noroeste 33 Noroeste 0 -- -- 87
2019-08-23 17:00:00 24.4 23 Noroeste 37 Noroeste 0 -- -- 84
2019-08-23 16:00:00 26.9 5 Nordeste 24 Norte 0 -- -- 78
2019-08-23 15:00:00 24.6 23 Norte 37 Norte 0 -- -- 84
2019-08-23 14:00:00 24.6 29 Norte 41 Noroeste 0 -- -- 83
2019-08-23 13:00:00 27.6 3 Oeste 13 Oeste 0 -- -- 64
2019-08-23 12:00:00 26.2 7 Oeste 17 Noroeste 0 -- -- 71
2019-08-23 11:00:00 24.8 14 Norte 25 Noroeste 0 -- -- 83
2019-08-23 10:00:00 22.6 22 Norte 44 Norte 0 -- -- 92
2019-08-23 09:00:00 22.1 33 Norte 44 Norte 0 -- -- 93
2019-08-23 08:00:00 21.9 30 Noroeste 45 Noroeste 0 -- -- 92
2019-08-23 07:00:00 21.8 28 Noroeste 57 Noroeste 0 -- -- 92
2019-08-23 06:00:00 21.8 26 Noroeste 36 Noroeste 0 -- -- 92
2019-08-23 05:00:00 21.9 22 Norte 32 Noroeste 0 -- -- 92
2019-08-23 04:00:00 22 21 Norte 30 Norte 0 -- -- 91
2019-08-23 03:00:00 21.8 23 Norte 36 Norte 0 -- -- 91
2019-08-23 02:00:00 22 21 Norte 31 Norte 0 -- -- 90
2019-08-23 01:00:00 22 20 Norte 33 Norte 0 -- -- 90
2019-08-23 00:00:00 22.4 20 Norte 36 Norte 0 -- -- 89
2019-08-22 23:00:00 22.2 30 Norte 47 Norte 0 -- -- 90
2019-08-22 22:00:00 22.2 27 Norte 42 Norte 0 -- -- 90
2019-08-22 21:00:00 22.5 27 Norte 39 Norte 0 -- -- 89
2019-08-22 20:00:00 22.8 30 Norte 49 Noroeste 0 -- -- 88
2019-08-22 19:00:00 23.1 32 Norte 46 Noroeste 0 -- -- 87
2019-08-22 18:00:00 23.2 39 Norte 66 Norte 0 -- -- 86
2019-08-22 17:00:00 23.2 36 Noroeste 49 Noroeste 0 -- -- 86
2019-08-22 16:00:00 23.6 38 Norte 63 Norte 0 -- -- 83
2019-08-22 15:00:00 23.9 33 Norte 42 Norte 0 -- -- 82
2019-08-22 14:00:00 24 30 Norte 51 Norte 0 -- -- 81
2019-08-22 13:00:00 23.6 32 Noroeste 52 Norte 0 -- -- 82
2019-08-22 12:00:00 23.7 28 Norte 38 Noroeste 0 -- -- 82
2019-08-22 11:00:00 23 31 Norte 44 Noroeste 0 -- -- 84
2019-08-22 10:00:00 22.7 27 Norte 33 Noroeste 0 -- -- 83
2019-08-22 09:00:00 22.4 10 Norte 34 Norte 0 -- -- 83
2019-08-22 08:00:00 21.6 28 Norte 42 Norte 0 -- -- 88
2019-08-22 07:00:00 21.5 33 Norte 43 Norte 0 -- -- 87
2019-08-22 06:00:00 21.5 31 Norte 41 Norte 0 -- -- 87
2019-08-22 05:00:00 21.4 27 Norte 37 Norte 0 -- -- 86
2019-08-22 04:00:00 21.4 30 Norte 43 Norte 0 -- -- 87
2019-08-22 03:00:00 21.5 30 Norte 39 Norte 0 -- -- 88
2019-08-22 02:00:00 21.5 30 Norte 41 Norte 0 -- -- 87
2019-08-22 01:00:00 21.6 31 Norte 46 Norte 0 -- -- 86
2019-08-22 00:00:00 21.7 28 Norte 47 Norte 0 -- -- 85
2019-08-21 23:00:00 21.8 31 Norte 53 Norte 0 -- -- 85
2019-08-21 22:00:00 21.9 35 Norte 50 Norte 0 -- -- 84
2019-08-21 21:00:00 22.3 32 Norte 52 Norte 0 -- -- 82
2019-08-21 20:00:00 22.4 36 Norte 48 Norte 0 -- -- 80
2019-08-21 19:00:00 23 34 Norte 49 Norte 0 -- -- 78
2019-08-21 18:00:00 23.2 39 Norte 66 Norte 0 -- -- 76
2019-08-21 17:00:00 23.4 37 Norte 48 Norte 0 -- -- 75
2019-08-21 16:00:00 23.7 35 Norte 46 Noroeste 0 -- -- 74
2019-08-21 15:00:00 24 32 Norte 46 Noroeste 0 -- -- 71
2019-08-21 14:00:00 24 32 Norte 42 Norte 0 -- -- 72
2019-08-21 13:00:00 24.4 21 Norte 35 Noroeste 0 -- -- 68
2019-08-21 12:00:00 23.4 27 Norte 37 Norte 0 -- -- 72
2019-08-21 11:00:00 22.7 31 Norte 44 Norte 0 -- -- 77
2019-08-21 10:00:00 22.7 25 Norte 50 Norte 0 -- -- 78
2019-08-21 09:00:00 21.9 39 Norte 48 Norte 0 -- -- 82
2019-08-21 08:00:00 21.7 35 Norte 47 Norte 0 -- -- 82
2019-08-21 07:00:00 21.6 31 Norte 41 Norte 0 -- -- 84
2019-08-21 06:00:00 21.6 25 Norte 40 Norte 0 -- -- 84
2019-08-21 05:00:00 21.5 31 Norte 46 Norte 0 -- -- 85
2019-08-21 04:00:00 21.5 31 Norte 42 Norte 0 -- -- 86
2019-08-21 03:00:00 21.4 29 Norte 46 Norte 0 -- -- 85
2019-08-21 02:00:00 21.6 27 Norte 43 Norte 0 -- -- 86
2019-08-21 01:00:00 21.5 29 Norte 37 Norte 0 -- -- 86
2019-08-21 00:00:00 21.7 27 Norte 36 Norte 0 -- -- 86